sensor_id;sensor_type;location;lat;lon;timestamp;P1;durP1;ratioP1;P2;durP2;ratioP2
48791;SDS011;34587;48.816;9.420;2023-06-26T04:16:20;8.18;;;5.35;;
48791;SDS011;34587;48.816;9.420;2023-06-26T04:18:46;9.50;;;5.85;;
48791;SDS011;34587;48.816;9.420;2023-06-26T04:21:12;10.30;;;4.93;;
48791;SDS011;34587;48.816;9.420;2023-06-26T04:23:40;11.18;;;5.68;;
48791;SDS011;34587;48.816;9.420;2023-06-26T04:26:06;8.00;;;4.72;;
48791;SDS011;34587;48.816;9.420;2023-06-26T04:28:35;7.70;;;5.03;;
48791;SDS011;34587;48.816;9.420;2023-06-26T04:31:01;8.93;;;5.15;;
48791;SDS011;34587;48.816;9.420;2023-06-26T04:33:28;10.70;;;5.30;;
48791;SDS011;34587;48.816;9.420;2023-06-26T04:35:54;9.07;;;5.38;;
48791;SDS011;34587;48.816;9.420;2023-06-26T04:38:19;7.30;;;4.85;;
48791;SDS011;34587;48.816;9.420;2023-06-26T04:40:45;8.65;;;5.32;;
48791;SDS011;34587;48.816;9.420;2023-06-26T04:43:11;8.43;;;5.00;;
48791;SDS011;34587;48.816;9.420;2023-06-26T04:45:36;7.75;;;4.88;;
48791;SDS011;34587;48.816;9.420;2023-06-26T04:48:02;7.43;;;5.13;;
48791;SDS011;34587;48.816;9.420;2023-06-26T04:50:27;8.90;;;5.57;;
48791;SDS011;34587;48.816;9.420;2023-06-26T04:52:54;10.15;;;5.70;;
48791;SDS011;34587;48.816;9.420;2023-06-26T04:55:20;9.13;;;5.40;;
48791;SDS011;34587;48.816;9.420;2023-06-26T04:57:46;8.52;;;5.90;;
48791;SDS011;34587;48.816;9.420;2023-06-26T05:00:13;8.35;;;5.63;;
48791;SDS011;34587;48.816;9.420;2023-06-26T05:02:40;8.43;;;5.00;;
48791;SDS011;34587;48.816;9.420;2023-06-26T05:05:05;6.93;;;4.57;;
48791;SDS011;34587;48.816;9.420;2023-06-26T05:07:31;10.45;;;5.82;;
48791;SDS011;34587;48.816;9.420;2023-06-26T05:09:56;8.07;;;4.80;;
48791;SDS011;34587;48.816;9.420;2023-06-26T05:12:21;9.52;;;5.90;;
48791;SDS011;34587;48.816;9.420;2023-06-26T05:14:47;9.73;;;5.68;;
48791;SDS011;34587;48.816;9.420;2023-06-26T05:17:15;7.47;;;5.07;;
48791;SDS011;34587;48.816;9.420;2023-06-26T05:19:40;10.77;;;7.05;;
48791;SDS011;34587;48.816;9.420;2023-06-26T05:22:06;8.38;;;5.22;;
48791;SDS011;34587;48.816;9.420;2023-06-26T05:24:32;11.90;;;5.43;;
48791;SDS011;34587;48.816;9.420;2023-06-26T05:27:00;7.65;;;5.55;;
48791;SDS011;34587;48.816;9.420;2023-06-26T05:29:26;12.20;;;5.28;;
48791;SDS011;34587;48.816;9.420;2023-06-26T05:31:52;10.20;;;5.68;;
48791;SDS011;34587;48.816;9.420;2023-06-26T05:34:18;7.75;;;4.65;;
48791;SDS011;34587;48.816;9.420;2023-06-26T05:36:47;8.70;;;5.63;;
48791;SDS011;34587;48.816;9.420;2023-06-26T05:39:15;8.70;;;5.05;;
48791;SDS011;34587;48.816;9.420;2023-06-26T05:41:41;7.15;;;5.32;;
48791;SDS011;34587;48.816;9.420;2023-06-26T05:44:07;7.85;;;5.28;;
48791;SDS011;34587;48.816;9.420;2023-06-26T05:46:32;9.23;;;5.45;;
48791;SDS011;34587;48.816;9.420;2023-06-26T05:48:58;10.68;;;5.25;;
48791;SDS011;34587;48.816;9.420;2023-06-26T05:51:23;7.82;;;5.38;;
48791;SDS011;34587;48.816;9.420;2023-06-26T05:53:49;5.97;;;4.93;;
48791;SDS011;34587;48.816;9.420;2023-06-26T05:56:15;7.75;;;5.38;;
48791;SDS011;34587;48.816;9.420;2023-06-26T05:58:40;7.28;;;4.72;;
48791;SDS011;34587;48.816;9.420;2023-06-26T06:01:07;7.57;;;4.65;;
48791;SDS011;34587;48.816;9.420;2023-06-26T06:03:33;8.25;;;5.32;;
48791;SDS011;34587;48.816;9.420;2023-06-26T06:05:58;11.63;;;5.22;;
48791;SDS011;34587;48.816;9.420;2023-06-26T06:08:23;7.30;;;5.10;;
48791;SDS011;34587;48.816;9.420;2023-06-26T06:10:48;7.65;;;4.55;;
48791;SDS011;34587;48.816;9.420;2023-06-26T06:13:14;8.50;;;4.40;;
48791;SDS011;34587;48.816;9.420;2023-06-26T06:15:39;7.55;;;4.50;;
48791;SDS011;34587;48.816;9.420;2023-06-26T06:18:04;7.15;;;4.63;;
48791;SDS011;34587;48.816;9.420;2023-06-26T06:20:30;7.35;;;5.05;;
48791;SDS011;34587;48.816;9.420;2023-06-26T06:22:55;7.43;;;4.47;;
48791;SDS011;34587;48.816;9.420;2023-06-26T06:25:20;11.20;;;4.50;;
48791;SDS011;34587;48.816;9.420;2023-06-26T06:27:46;5.65;;;4.07;;
48791;SDS011;34587;48.816;9.420;2023-06-26T06:30:11;13.20;;;4.50;;
48791;SDS011;34587;48.816;9.420;2023-06-26T06:32:37;6.78;;;4.22;;
48791;SDS011;34587;48.816;9.420;2023-06-26T06:35:02;6.35;;;4.53;;
48791;SDS011;34587;48.816;9.420;2023-06-26T06:37:34;8.90;;;4.70;;
48791;SDS011;34587;48.816;9.420;2023-06-26T06:39:59;8.23;;;4.53;;
48791;SDS011;34587;48.816;9.420;2023-06-26T06:42:24;6.85;;;4.03;;
48791;SDS011;34587;48.816;9.420;2023-06-26T06:44:50;5.25;;;3.85;;
48791;SDS011;34587;48.816;9.420;2023-06-26T06:47:15;10.10;;;4.60;;
48791;SDS011;34587;48.816;9.420;2023-06-26T06:49:40;7.85;;;4.32;;
48791;SDS011;34587;48.816;9.420;2023-06-26T06:52:05;4.57;;;3.63;;
48791;SDS011;34587;48.816;9.420;2023-06-26T06:54:31;5.15;;;3.90;;
48791;SDS011;34587;48.816;9.420;2023-06-26T06:56:56;4.65;;;3.50;;
48791;SDS011;34587;48.816;9.420;2023-06-26T06:59:21;5.32;;;3.33;;
48791;SDS011;34587;48.816;9.420;2023-06-26T07:01:47;5.32;;;3.67;;
48791;SDS011;34587;48.816;9.420;2023-06-26T07:04:12;5.88;;;2.90;;
48791;SDS011;34587;48.816;9.420;2023-06-26T07:06:37;3.33;;;3.03;;
48791;SDS011;34587;48.816;9.420;2023-06-26T07:09:02;3.30;;;3.00;;
48791;SDS011;34587;48.816;9.420;2023-06-26T07:11:28;3.63;;;2.90;;
48791;SDS011;34587;48.816;9.420;2023-06-26T07:13:54;3.50;;;2.70;;
48791;SDS011;34587;48.816;9.420;2023-06-26T07:16:20;3.13;;;2.83;;
48791;SDS011;34587;48.816;9.420;2023-06-26T07:18:45;5.82;;;3.25;;
48791;SDS011;34587;48.816;9.420;2023-06-26T07:21:11;3.13;;;2.70;;
48791;SDS011;34587;48.816;9.420;2023-06-26T07:23:36;3.42;;;2.92;;
48791;SDS011;34587;48.816;9.420;2023-06-26T07:26:01;3.00;;;2.70;;
48791;SDS011;34587;48.816;9.420;2023-06-26T07:28:27;8.53;;;3.00;;
48791;SDS011;34587;48.816;9.420;2023-06-26T07:30:52;3.15;;;2.85;;
48791;SDS011;34587;48.816;9.420;2023-06-26T07:33:18;3.27;;;2.83;;
48791;SDS011;34587;48.816;9.420;2023-06-26T07:35:43;4.63;;;2.63;;
48791;SDS011;34587;48.816;9.420;2023-06-26T07:38:08;4.33;;;2.40;;
48791;SDS011;34587;48.816;9.420;2023-06-26T07:40:34;3.43;;;2.90;;
48791;SDS011;34587;48.816;9.420;2023-06-26T07:42:59;2.90;;;2.60;;
48791;SDS011;34587;48.816;9.420;2023-06-26T07:45:24;3.77;;;2.77;;
48791;SDS011;34587;48.816;9.420;2023-06-26T07:47:50;3.42;;;2.53;;
48791;SDS011;34587;48.816;9.420;2023-06-26T07:50:15;3.57;;;2.70;;
48791;SDS011;34587;48.816;9.420;2023-06-26T07:52:46;3.15;;;2.63;;
48791;SDS011;34587;48.816;9.420;2023-06-26T07:55:11;3.08;;;2.78;;
48791;SDS011;34587;48.816;9.420;2023-06-26T07:57:37;3.20;;;2.58;;
48791;SDS011;34587;48.816;9.420;2023-06-26T08:00:02;2.37;;;2.17;;
48791;SDS011;34587;48.816;9.420;2023-06-26T08:02:31;6.35;;;3.75;;
48791;SDS011;34587;48.816;9.420;2023-06-26T08:04:56;5.63;;;2.60;;
48791;SDS011;34587;48.816;9.420;2023-06-26T08:07:22;3.10;;;2.80;;
48791;SDS011;34587;48.816;9.420;2023-06-26T08:09:47;3.07;;;2.73;;
48791;SDS011;34587;48.816;9.420;2023-06-26T08:12:12;7.22;;;2.58;;
48791;SDS011;34587;48.816;9.420;2023-06-26T08:14:37;2.97;;;2.77;;
48791;SDS011;34587;48.816;9.420;2023-06-26T08:17:03;3.50;;;3.20;;
48791;SDS011;34587;48.816;9.420;2023-06-26T08:19:28;4.10;;;2.63;;
48791;SDS011;34587;48.816;9.420;2023-06-26T08:21:54;2.72;;;2.25;;
48791;SDS011;34587;48.816;9.420;2023-06-26T08:24:19;2.97;;;2.50;;
48791;SDS011;34587;48.816;9.420;2023-06-26T08:26:45;3.92;;;2.42;;
48791;SDS011;34587;48.816;9.420;2023-06-26T08:29:11;6.55;;;1.98;;
48791;SDS011;34587;48.816;9.420;2023-06-26T08:31:37;3.28;;;2.97;;
48791;SDS011;34587;48.816;9.420;2023-06-26T08:34:03;3.08;;;2.60;;
48791;SDS011;34587;48.816;9.420;2023-06-26T08:36:29;2.75;;;2.00;;
48791;SDS011;34587;48.816;9.420;2023-06-26T08:38:55;3.53;;;2.67;;
48791;SDS011;34587;48.816;9.420;2023-06-26T08:41:20;2.58;;;2.20;;
48791;SDS011;34587;48.816;9.420;2023-06-26T08:43:46;2.95;;;2.42;;
48791;SDS011;34587;48.816;9.420;2023-06-26T08:46:11;2.63;;;2.42;;
48791;SDS011;34587;48.816;9.420;2023-06-26T08:48:37;4.15;;;3.13;;
48791;SDS011;34587;48.816;9.420;2023-06-26T08:51:09;3.67;;;2.58;;
48791;SDS011;34587;48.816;9.420;2023-06-26T08:53:40;2.28;;;2.08;;
48791;SDS011;34587;48.816;9.420;2023-06-26T08:56:15;7.32;;;3.75;;
48791;SDS011;34587;48.816;9.420;2023-06-26T08:58:43;2.40;;;2.20;;
48791;SDS011;34587;48.816;9.420;2023-06-26T09:01:09;3.95;;;2.45;;
48791;SDS011;34587;48.816;9.420;2023-06-26T09:03:35;4.68;;;2.38;;
48791;SDS011;34587;48.816;9.420;2023-06-26T09:06:01;2.70;;;2.50;;
48791;SDS011;34587;48.816;9.420;2023-06-26T09:08:26;5.35;;;2.53;;
48791;SDS011;34587;48.816;9.420;2023-06-26T09:10:52;2.53;;;2.33;;
48791;SDS011;34587;48.816;9.420;2023-06-26T09:13:18;2.15;;;1.98;;
48791;SDS011;34587;48.816;9.420;2023-06-26T09:15:43;4.10;;;2.20;;
48791;SDS011;34587;48.816;9.420;2023-06-26T09:18:09;3.17;;;2.42;;
48791;SDS011;34587;48.816;9.420;2023-06-26T09:20:35;3.60;;;2.03;;
48791;SDS011;34587;48.816;9.420;2023-06-26T09:23:01;5.15;;;2.42;;
48791;SDS011;34587;48.816;9.420;2023-06-26T09:25:27;2.45;;;2.25;;
48791;SDS011;34587;48.816;9.420;2023-06-26T09:27:53;3.95;;;2.33;;
48791;SDS011;34587;48.816;9.420;2023-06-26T09:30:19;2.83;;;2.45;;
48791;SDS011;34587;48.816;9.420;2023-06-26T09:32:44;2.28;;;1.83;;
48791;SDS011;34587;48.816;9.420;2023-06-26T09:35:10;4.68;;;2.03;;
48791;SDS011;34587;48.816;9.420;2023-06-26T09:37:36;2.53;;;1.80;;
48791;SDS011;34587;48.816;9.420;2023-06-26T09:40:02;1.92;;;1.80;;
48791;SDS011;34587;48.816;9.420;2023-06-26T09:42:28;2.30;;;2.10;;
48791;SDS011;34587;48.816;9.420;2023-06-26T09:44:54;2.65;;;2.45;;
48791;SDS011;34587;48.816;9.420;2023-06-26T09:47:20;4.40;;;2.92;;
48791;SDS011;34587;48.816;9.420;2023-06-26T09:49:46;3.15;;;2.10;;
48791;SDS011;34587;48.816;9.420;2023-06-26T09:52:14;3.70;;;2.10;;
48791;SDS011;34587;48.816;9.420;2023-06-26T09:54:44;3.33;;;2.35;;
48791;SDS011;34587;48.816;9.420;2023-06-26T09:57:13;3.00;;;2.22;;
48791;SDS011;34587;48.816;9.420;2023-06-26T09:59:41;2.25;;;1.92;;
48791;SDS011;34587;48.816;9.420;2023-06-26T10:02:07;2.42;;;2.22;;
48791;SDS011;34587;48.816;9.420;2023-06-26T10:04:33;5.05;;;2.42;;
48791;SDS011;34587;48.816;9.420;2023-06-26T10:07:01;3.55;;;2.30;;
48791;SDS011;34587;48.816;9.420;2023-06-26T10:09:27;2.50;;;2.30;;
48791;SDS011;34587;48.816;9.420;2023-06-26T10:14:33;2.78;;;2.05;;
48791;SDS011;34587;48.816;9.420;2023-06-26T10:17:01;3.08;;;2.13;;
48791;SDS011;34587;48.816;9.420;2023-06-26T10:19:28;8.87;;;2.60;;
48791;SDS011;34587;48.816;9.420;2023-06-26T10:21:56;6.13;;;1.98;;
48791;SDS011;34587;48.816;9.420;2023-06-26T10:24:23;2.53;;;2.15;;
48791;SDS011;34587;48.816;9.420;2023-06-26T10:26:54;6.60;;;5.45;;
48791;SDS011;34587;48.816;9.420;2023-06-26T10:29:24;2.50;;;2.17;;
48791;SDS011;34587;48.816;9.420;2023-06-26T10:31:51;2.35;;;2.15;;
48791;SDS011;34587;48.816;9.420;2023-06-26T10:34:20;7.00;;;2.05;;
48791;SDS011;34587;48.816;9.420;2023-06-26T10:36:46;2.67;;;2.17;;
48791;SDS011;34587;48.816;9.420;2023-06-26T10:39:13;1.95;;;1.75;;
48791;SDS011;34587;48.816;9.420;2023-06-26T10:41:41;2.58;;;2.30;;
48791;SDS011;34587;48.816;9.420;2023-06-26T10:44:08;2.53;;;2.33;;
48791;SDS011;34587;48.816;9.420;2023-06-26T10:46:48;3.97;;;2.63;;
48791;SDS011;34587;48.816;9.420;2023-06-26T10:49:17;3.35;;;2.35;;
48791;SDS011;34587;48.816;9.420;2023-06-26T10:51:47;3.88;;;2.67;;
48791;SDS011;34587;48.816;9.420;2023-06-26T10:54:17;4.07;;;2.60;;
48791;SDS011;34587;48.816;9.420;2023-06-26T10:56:45;5.00;;;2.67;;
48791;SDS011;34587;48.816;9.420;2023-06-26T10:59:21;2.75;;;2.55;;
48791;SDS011;34587;48.816;9.420;2023-06-26T11:04:46;5.57;;;2.88;;
48791;SDS011;34587;48.816;9.420;2023-06-26T11:07:24;3.83;;;2.40;;
48791;SDS011;34587;48.816;9.420;2023-06-26T11:09:54;3.38;;;2.50;;
48791;SDS011;34587;48.816;9.420;2023-06-26T11:12:33;4.60;;;2.67;;
48791;SDS011;34587;48.816;9.420;2023-06-26T11:15:09;4.05;;;2.80;;
48791;SDS011;34587;48.816;9.420;2023-06-26T11:17:38;3.35;;;3.00;;
48791;SDS011;34587;48.816;9.420;2023-06-26T11:20:09;3.47;;;2.90;;
48791;SDS011;34587;48.816;9.420;2023-06-26T11:22:36;3.05;;;2.80;;
48791;SDS011;34587;48.816;9.420;2023-06-26T11:25:03;6.55;;;2.72;;
48791;SDS011;34587;48.816;9.420;2023-06-26T11:27:31;3.60;;;3.30;;
48791;SDS011;34587;48.816;9.420;2023-06-26T11:29:57;6.18;;;3.50;;
48791;SDS011;34587;48.816;9.420;2023-06-26T11:32:22;3.63;;;3.00;;
48791;SDS011;34587;48.816;9.420;2023-06-26T11:34:48;5.07;;;3.43;;
48791;SDS011;34587;48.816;9.420;2023-06-26T11:37:16;5.57;;;3.00;;
48791;SDS011;34587;48.816;9.420;2023-06-26T11:39:42;3.42;;;3.13;;
48791;SDS011;34587;48.816;9.420;2023-06-26T11:42:07;5.47;;;2.57;;
48791;SDS011;34587;48.816;9.420;2023-06-26T11:44:32;13.48;;;3.30;;
48791;SDS011;34587;48.816;9.420;2023-06-26T11:47:05;4.03;;;3.22;;
48791;SDS011;34587;48.816;9.420;2023-06-26T11:49:30;3.17;;;2.88;;
48791;SDS011;34587;48.816;9.420;2023-06-26T11:51:56;4.10;;;3.00;;
48791;SDS011;34587;48.816;9.420;2023-06-26T11:54:25;2.77;;;2.53;;
48791;SDS011;34587;48.816;9.420;2023-06-26T11:56:55;3.15;;;2.80;;
48791;SDS011;34587;48.816;9.420;2023-06-26T11:59:21;7.25;;;5.00;;
48791;SDS011;34587;48.816;9.420;2023-06-26T12:01:47;4.07;;;2.60;;
48791;SDS011;34587;48.816;9.420;2023-06-26T12:04:16;8.57;;;2.90;;
48791;SDS011;34587;48.816;9.420;2023-06-26T12:06:43;7.85;;;2.85;;
48791;SDS011;34587;48.816;9.420;2023-06-26T12:09:13;6.00;;;2.92;;
48791;SDS011;34587;48.816;9.420;2023-06-26T12:11:40;4.22;;;2.50;;
48791;SDS011;34587;48.816;9.420;2023-06-26T12:14:07;3.90;;;2.83;;
48791;SDS011;34587;48.816;9.420;2023-06-26T12:16:34;12.35;;;3.10;;
48791;SDS011;34587;48.816;9.420;2023-06-26T12:19:04;4.88;;;3.33;;
48791;SDS011;34587;48.816;9.420;2023-06-26T12:24:02;5.00;;;3.10;;
48791;SDS011;34587;48.816;9.420;2023-06-26T12:26:27;6.45;;;2.92;;
48791;SDS011;34587;48.816;9.420;2023-06-26T12:29:17;4.00;;;3.25;;
48791;SDS011;34587;48.816;9.420;2023-06-26T12:31:44;6.40;;;3.30;;
48791;SDS011;34587;48.816;9.420;2023-06-26T12:34:13;4.88;;;2.97;;
48791;SDS011;34587;48.816;9.420;2023-06-26T12:36:51;5.75;;;3.05;;
48791;SDS011;34587;48.816;9.420;2023-06-26T12:39:17;6.90;;;3.45;;
48791;SDS011;34587;48.816;9.420;2023-06-26T12:41:54;5.10;;;2.85;;
48791;SDS011;34587;48.816;9.420;2023-06-26T12:44:29;10.77;;;3.45;;
48791;SDS011;34587;48.816;9.420;2023-06-26T12:46:59;6.65;;;3.30;;
48791;SDS011;34587;48.816;9.420;2023-06-26T12:49:35;3.50;;;3.10;;
48791;SDS011;34587;48.816;9.420;2023-06-26T12:52:02;3.33;;;2.85;;
48791;SDS011;34587;48.816;9.420;2023-06-26T12:54:33;9.40;;;3.53;;
48791;SDS011;34587;48.816;9.420;2023-06-26T12:56:59;5.60;;;2.88;;
48791;SDS011;34587;48.816;9.420;2023-06-26T12:59:24;5.40;;;2.95;;
48791;SDS011;34587;48.816;9.420;2023-06-26T13:01:50;3.50;;;2.75;;
48791;SDS011;34587;48.816;9.420;2023-06-26T13:04:15;8.05;;;3.42;;
48791;SDS011;34587;48.816;9.420;2023-06-26T13:06:41;7.63;;;4.00;;
48791;SDS011;34587;48.816;9.420;2023-06-26T13:09:06;4.50;;;3.33;;
48791;SDS011;34587;48.816;9.420;2023-06-26T13:11:32;5.03;;;3.30;;
48791;SDS011;34587;48.816;9.420;2023-06-26T13:13:58;12.07;;;3.50;;
48791;SDS011;34587;48.816;9.420;2023-06-26T13:16:24;4.13;;;3.15;;
48791;SDS011;34587;48.816;9.420;2023-06-26T13:18:50;7.10;;;2.97;;
48791;SDS011;34587;48.816;9.420;2023-06-26T13:21:15;3.88;;;3.25;;
48791;SDS011;34587;48.816;9.420;2023-06-26T13:23:42;3.42;;;2.60;;
48791;SDS011;34587;48.816;9.420;2023-06-26T13:26:07;3.88;;;3.30;;
48791;SDS011;34587;48.816;9.420;2023-06-26T13:28:32;4.40;;;3.15;;
48791;SDS011;34587;48.816;9.420;2023-06-26T13:30:58;4.28;;;3.30;;
48791;SDS011;34587;48.816;9.420;2023-06-26T13:33:23;4.03;;;3.47;;
48791;SDS011;34587;48.816;9.420;2023-06-26T13:35:50;3.90;;;2.92;;
48791;SDS011;34587;48.816;9.420;2023-06-26T13:38:21;3.95;;;2.80;;
48791;SDS011;34587;48.816;9.420;2023-06-26T13:40:53;4.70;;;2.85;;
48791;SDS011;34587;48.816;9.420;2023-06-26T13:43:20;7.57;;;3.28;;
48791;SDS011;34587;48.816;9.420;2023-06-26T13:45:46;4.97;;;2.83;;
48791;SDS011;34587;48.816;9.420;2023-06-26T13:48:11;4.75;;;2.67;;
48791;SDS011;34587;48.816;9.420;2023-06-26T13:50:37;3.30;;;3.00;;
48791;SDS011;34587;48.816;9.420;2023-06-26T13:53:03;3.92;;;2.75;;
48791;SDS011;34587;48.816;9.420;2023-06-26T13:55:28;7.87;;;2.87;;
48791;SDS011;34587;48.816;9.420;2023-06-26T13:57:53;4.53;;;2.67;;
48791;SDS011;34587;48.816;9.420;2023-06-26T14:00:21;4.65;;;2.92;;
48791;SDS011;34587;48.816;9.420;2023-06-26T14:02:47;5.95;;;2.75;;
48791;SDS011;34587;48.816;9.420;2023-06-26T14:05:13;3.95;;;2.60;;
48791;SDS011;34587;48.816;9.420;2023-06-26T14:07:38;4.05;;;2.90;;
48791;SDS011;34587;48.816;9.420;2023-06-26T14:10:04;7.10;;;2.47;;
48791;SDS011;34587;48.816;9.420;2023-06-26T14:12:30;3.60;;;2.72;;
48791;SDS011;34587;48.816;9.420;2023-06-26T14:14:57;3.15;;;2.28;;
48791;SDS011;34587;48.816;9.420;2023-06-26T14:17:22;2.75;;;2.20;;
48791;SDS011;34587;48.816;9.420;2023-06-26T14:19:50;3.80;;;2.70;;
48791;SDS011;34587;48.816;9.420;2023-06-26T14:22:18;2.78;;;2.38;;
48791;SDS011;34587;48.816;9.420;2023-06-26T14:24:44;5.88;;;2.97;;
48791;SDS011;34587;48.816;9.420;2023-06-26T14:27:09;23.83;;;2.90;;
48791;SDS011;34587;48.816;9.420;2023-06-26T14:29:35;3.13;;;2.28;;
48791;SDS011;34587;48.816;9.420;2023-06-26T14:32:01;3.53;;;2.50;;
48791;SDS011;34587;48.816;9.420;2023-06-26T14:34:27;5.45;;;3.10;;
48791;SDS011;34587;48.816;9.420;2023-06-26T14:36:53;3.88;;;2.17;;
48791;SDS011;34587;48.816;9.420;2023-06-26T14:39:18;3.88;;;1.80;;
48791;SDS011;34587;48.816;9.420;2023-06-26T14:41:43;2.60;;;2.00;;
48791;SDS011;34587;48.816;9.420;2023-06-26T14:44:08;9.45;;;2.00;;
48791;SDS011;34587;48.816;9.420;2023-06-26T14:46:35;2.58;;;2.10;;
48791;SDS011;34587;48.816;9.420;2023-06-26T14:49:01;2.38;;;1.80;;
48791;SDS011;34587;48.816;9.420;2023-06-26T14:51:26;3.90;;;1.67;;
48791;SDS011;34587;48.816;9.420;2023-06-26T14:53:51;4.07;;;1.92;;
48791;SDS011;34587;48.816;9.420;2023-06-26T14:56:17;4.47;;;1.37;;
48791;SDS011;34587;48.816;9.420;2023-06-26T14:58:42;2.53;;;1.85;;
48791;SDS011;34587;48.816;9.420;2023-06-26T15:01:07;1.80;;;1.27;;
48791;SDS011;34587;48.816;9.420;2023-06-26T15:03:33;2.40;;;1.65;;
48791;SDS011;34587;48.816;9.420;2023-06-26T15:05:59;3.40;;;2.20;;
48791;SDS011;34587;48.816;9.420;2023-06-26T15:08:24;3.30;;;1.70;;
48791;SDS011;34587;48.816;9.420;2023-06-26T15:10:49;5.40;;;2.17;;
48791;SDS011;34587;48.816;9.420;2023-06-26T15:13:15;3.33;;;1.63;;
48791;SDS011;34587;48.816;9.420;2023-06-26T15:15:40;2.08;;;1.77;;
48791;SDS011;34587;48.816;9.420;2023-06-26T15:18:05;2.70;;;1.95;;
48791;SDS011;34587;48.816;9.420;2023-06-26T15:20:31;3.92;;;1.80;;
48791;SDS011;34587;48.816;9.420;2023-06-26T15:22:56;2.25;;;1.60;;
48791;SDS011;34587;48.816;9.420;2023-06-26T15:25:23;5.25;;;2.42;;
48791;SDS011;34587;48.816;9.420;2023-06-26T15:27:48;1.85;;;1.65;;
48791;SDS011;34587;48.816;9.420;2023-06-26T15:30:15;3.03;;;1.83;;
48791;SDS011;34587;48.816;9.420;2023-06-26T15:32:40;3.58;;;2.10;;
48791;SDS011;34587;48.816;9.420;2023-06-26T15:35:06;3.38;;;2.05;;
48791;SDS011;34587;48.816;9.420;2023-06-26T15:37:31;3.00;;;2.17;;
48791;SDS011;34587;48.816;9.420;2023-06-26T15:39:57;3.53;;;1.88;;
48791;SDS011;34587;48.816;9.420;2023-06-26T15:42:25;6.90;;;2.30;;
48791;SDS011;34587;48.816;9.420;2023-06-26T15:44:52;2.65;;;1.95;;
48791;SDS011;34587;48.816;9.420;2023-06-26T15:47:17;13.27;;;2.47;;
48791;SDS011;34587;48.816;9.420;2023-06-26T15:49:43;2.58;;;2.20;;
48791;SDS011;34587;48.816;9.420;2023-06-26T15:52:09;2.25;;;1.95;;
48791;SDS011;34587;48.816;9.420;2023-06-26T15:54:34;3.00;;;2.35;;
48791;SDS011;34587;48.816;9.420;2023-06-26T15:57:00;4.43;;;2.83;;
48791;SDS011;34587;48.816;9.420;2023-06-26T15:59:25;4.28;;;2.70;;
48791;SDS011;34587;48.816;9.420;2023-06-26T16:01:50;4.67;;;2.60;;
48791;SDS011;34587;48.816;9.420;2023-06-26T16:04:17;4.63;;;2.10;;
48791;SDS011;34587;48.816;9.420;2023-06-26T16:06:42;6.35;;;3.05;;
48791;SDS011;34587;48.816;9.420;2023-06-26T16:09:08;5.93;;;3.05;;
48791;SDS011;34587;48.816;9.420;2023-06-26T16:11:33;4.57;;;2.70;;
48791;SDS011;34587;48.816;9.420;2023-06-26T16:13:59;6.57;;;2.90;;
48791;SDS011;34587;48.816;9.420;2023-06-26T16:16:24;4.07;;;3.20;;
48791;SDS011;34587;48.816;9.420;2023-06-26T16:18:49;5.65;;;3.05;;
48791;SDS011;34587;48.816;9.420;2023-06-26T16:21:15;6.28;;;3.05;;
48791;SDS011;34587;48.816;9.420;2023-06-26T16:23:41;5.68;;;3.15;;
48791;SDS011;34587;48.816;9.420;2023-06-26T16:26:06;6.10;;;2.97;;
48791;SDS011;34587;48.816;9.420;2023-06-26T16:28:31;5.05;;;2.97;;
48791;SDS011;34587;48.816;9.420;2023-06-26T16:30:57;7.00;;;3.17;;
48791;SDS011;34587;48.816;9.420;2023-06-26T16:33:22;4.93;;;3.05;;
48791;SDS011;34587;48.816;9.420;2023-06-26T16:35:47;8.83;;;3.80;;
48791;SDS011;34587;48.816;9.420;2023-06-26T16:38:12;5.35;;;3.35;;
48791;SDS011;34587;48.816;9.420;2023-06-26T16:40:38;5.55;;;3.15;;
48791;SDS011;34587;48.816;9.420;2023-06-26T16:43:03;7.18;;;3.30;;
48791;SDS011;34587;48.816;9.420;2023-06-26T16:45:28;7.55;;;3.05;;
48791;SDS011;34587;48.816;9.420;2023-06-26T16:47:54;4.72;;;2.70;;
48791;SDS011;34587;48.816;9.420;2023-06-26T16:50:19;3.50;;;2.70;;
48791;SDS011;34587;48.816;9.420;2023-06-26T16:52:45;5.10;;;2.58;;
48791;SDS011;34587;48.816;9.420;2023-06-26T16:55:10;12.27;;;3.53;;
48791;SDS011;34587;48.816;9.420;2023-06-26T16:57:36;5.10;;;2.78;;
48791;SDS011;34587;48.816;9.420;2023-06-26T17:00:05;4.20;;;2.15;;
48791;SDS011;34587;48.816;9.420;2023-06-26T17:02:31;9.27;;;2.55;;
48791;SDS011;34587;48.816;9.420;2023-06-26T17:04:57;3.78;;;2.55;;
48791;SDS011;34587;48.816;9.420;2023-06-26T17:07:26;2.83;;;1.60;;
48791;SDS011;34587;48.816;9.420;2023-06-26T17:09:51;2.90;;;2.05;;
48791;SDS011;34587;48.816;9.420;2023-06-26T17:12:16;4.78;;;1.92;;
48791;SDS011;34587;48.816;9.420;2023-06-26T17:14:42;3.95;;;1.67;;
48791;SDS011;34587;48.816;9.420;2023-06-26T17:17:07;4.90;;;2.88;;
48791;SDS011;34587;48.816;9.420;2023-06-26T17:19:33;3.42;;;1.45;;
48791;SDS011;34587;48.816;9.420;2023-06-26T17:22:01;2.60;;;1.67;;
48791;SDS011;34587;48.816;9.420;2023-06-26T17:24:29;3.75;;;1.23;;
48791;SDS011;34587;48.816;9.420;2023-06-26T17:27:06;4.13;;;1.48;;
48791;SDS011;34587;48.816;9.420;2023-06-26T17:29:33;15.30;;;2.35;;
48791;SDS011;34587;48.816;9.420;2023-06-26T17:31:58;1.13;;;1.00;;
48791;SDS011;34587;48.816;9.420;2023-06-26T17:34:23;1.25;;;0.80;;
48791;SDS011;34587;48.816;9.420;2023-06-26T17:36:49;1.77;;;1.15;;
48791;SDS011;34587;48.816;9.420;2023-06-26T17:39:14;5.68;;;1.15;;
48791;SDS011;34587;48.816;9.420;2023-06-26T17:41:39;1.42;;;1.10;;
48791;SDS011;34587;48.816;9.420;2023-06-26T17:44:04;10.10;;;1.85;;
48791;SDS011;34587;48.816;9.420;2023-06-26T17:46:30;2.50;;;1.13;;
48791;SDS011;34587;48.816;9.420;2023-06-26T17:48:56;2.03;;;1.02;;
48791;SDS011;34587;48.816;9.420;2023-06-26T17:51:21;3.88;;;1.15;;
48791;SDS011;34587;48.816;9.420;2023-06-26T17:53:46;3.35;;;0.95;;
48791;SDS011;34587;48.816;9.420;2023-06-26T17:56:15;3.28;;;1.50;;
48791;SDS011;34587;48.816;9.420;2023-06-26T17:58:41;1.33;;;1.00;;
48791;SDS011;34587;48.816;9.420;2023-06-26T18:01:06;1.63;;;0.90;;
48791;SDS011;34587;48.816;9.420;2023-06-26T18:03:31;2.25;;;1.10;;
48791;SDS011;34587;48.816;9.420;2023-06-26T18:05:56;1.85;;;0.90;;
48791;SDS011;34587;48.816;9.420;2023-06-26T18:08:22;1.73;;;1.05;;
48791;SDS011;34587;48.816;9.420;2023-06-26T18:10:47;2.58;;;1.13;;
48791;SDS011;34587;48.816;9.420;2023-06-26T18:13:12;1.20;;;0.93;;
48791;SDS011;34587;48.816;9.420;2023-06-26T18:15:37;4.35;;;1.30;;
48791;SDS011;34587;48.816;9.420;2023-06-26T18:18:03;3.72;;;1.33;;
48791;SDS011;34587;48.816;9.420;2023-06-26T18:20:28;1.77;;;1.20;;
48791;SDS011;34587;48.816;9.420;2023-06-26T18:22:53;2.67;;;1.05;;
48791;SDS011;34587;48.816;9.420;2023-06-26T18:25:21;1.88;;;0.95;;
48791;SDS011;34587;48.816;9.420;2023-06-26T18:27:47;5.07;;;1.10;;
48791;SDS011;34587;48.816;9.420;2023-06-26T18:30:13;1.83;;;1.17;;
48791;SDS011;34587;48.816;9.420;2023-06-26T18:32:39;2.10;;;1.02;;
48791;SDS011;34587;48.816;9.420;2023-06-26T18:35:06;4.95;;;1.13;;
48791;SDS011;34587;48.816;9.420;2023-06-26T18:37:31;3.35;;;1.10;;
48791;SDS011;34587;48.816;9.420;2023-06-26T18:39:57;10.25;;;1.15;;
48791;SDS011;34587;48.816;9.420;2023-06-26T18:42:22;2.72;;;1.00;;
48791;SDS011;34587;48.816;9.420;2023-06-26T18:44:48;1.50;;;0.80;;
48791;SDS011;34587;48.816;9.420;2023-06-26T18:47:14;10.00;;;1.50;;
48791;SDS011;34587;48.816;9.420;2023-06-26T18:49:41;4.57;;;1.10;;
48791;SDS011;34587;48.816;9.420;2023-06-26T18:52:07;1.52;;;1.27;;
48791;SDS011;34587;48.816;9.420;2023-06-26T18:54:32;3.97;;;1.08;;
48791;SDS011;34587;48.816;9.420;2023-06-26T18:56:57;2.00;;;0.80;;
48791;SDS011;34587;48.816;9.420;2023-06-26T18:59:25;5.05;;;1.48;;
48791;SDS011;34587;48.816;9.420;2023-06-26T19:01:52;3.95;;;0.98;;
48791;SDS011;34587;48.816;9.420;2023-06-26T19:04:18;2.03;;;0.90;;
48791;SDS011;34587;48.816;9.420;2023-06-26T19:06:44;1.55;;;0.90;;